createdAt,value
2019-04-20T00:02:07.391Z,13.80
2019-04-20T00:04:35.575Z,13.70
2019-04-20T00:07:04.347Z,13.70
2019-04-20T00:09:38.013Z,13.60
2019-04-20T00:12:12.678Z,13.50
2019-04-20T00:14:37.527Z,13.60
2019-04-20T00:17:07.213Z,13.50
2019-04-20T00:19:42.201Z,13.50
2019-04-20T00:22:15.157Z,13.50
2019-04-20T00:24:58.067Z,13.50
2019-04-20T00:27:49.565Z,13.50
2019-04-20T00:30:20.984Z,13.40
2019-04-20T00:32:43.789Z,13.20
2019-04-20T00:34:59.871Z,13.30
2019-04-20T00:37:29.776Z,13.30
2019-04-20T00:39:59.566Z,13.30
2019-04-20T00:42:36.007Z,13.20
2019-04-20T00:45:05.660Z,13.20
2019-04-20T00:47:41.876Z,13.20
2019-04-20T00:50:22.831Z,13.20
2019-04-20T00:52:50.917Z,13.10
2019-04-20T00:55:06.267Z,13.10
2019-04-20T00:57:46.686Z,13.10
2019-04-20T01:00:27.068Z,13.10
2019-04-20T01:02:50.601Z,13.00
2019-04-20T01:05:27.635Z,13.00
2019-04-20T01:07:52.125Z,13.00
2019-04-20T01:10:19.600Z,12.90
2019-04-20T01:12:52.090Z,12.90
2019-04-20T01:15:29.030Z,12.80
2019-04-20T01:17:51.259Z,12.70
2019-04-20T01:20:22.672Z,12.60
2019-04-20T01:23:00.070Z,12.60
2019-04-20T01:25:29.089Z,12.60
2019-04-20T01:28:10.278Z,12.60
2019-04-20T01:30:34.992Z,12.60
2019-04-20T01:33:12.656Z,12.60
2019-04-20T01:35:44.078Z,12.70
2019-04-20T01:38:18.184Z,12.60
2019-04-20T01:40:29.562Z,12.60
2019-04-20T01:42:59.495Z,12.50
2019-04-20T01:45:34.134Z,12.50
2019-04-20T01:48:01.783Z,12.50
2019-04-20T01:50:34.973Z,12.30
2019-04-20T01:53:12.778Z,12.30
2019-04-20T01:55:46.612Z,12.30
2019-04-20T01:58:39.662Z,12.30
2019-04-20T02:00:59.172Z,12.30
2019-04-20T02:03:40.526Z,12.20
2019-04-20T02:06:16.140Z,12.30
2019-04-20T02:08:42.248Z,12.20
2019-04-20T02:11:18.726Z,12.20
2019-04-20T02:13:49.954Z,12.20
2019-04-20T02:16:22.678Z,12.10
2019-04-20T02:19:05.333Z,12.20
2019-04-20T02:21:33.959Z,12.20
2019-04-20T02:23:53.101Z,12.20
2019-04-20T02:26:19.866Z,12.10
2019-04-20T02:29:12.267Z,11.80
2019-04-20T02:32:06.734Z,11.80
2019-04-20T02:34:31.594Z,11.80
2019-04-20T02:37:09.207Z,11.90
2019-04-20T02:39:43.242Z,11.90
2019-04-20T02:42:10.172Z,11.80
2019-04-20T02:44:40.371Z,11.80
2019-04-20T02:49:40.393Z,11.70
2019-04-20T02:52:13.491Z,11.60
2019-04-20T02:54:46.812Z,11.70
2019-04-20T02:57:10.589Z,11.70
2019-04-20T02:59:59.646Z,11.80
2019-04-20T03:01:59.075Z,11.80
2019-04-20T03:04:25.767Z,11.70
2019-04-20T03:06:58.337Z,11.70
2019-04-20T03:09:38.539Z,11.60
2019-04-20T03:12:08.194Z,11.50
2019-04-20T03:14:34.878Z,11.50
2019-04-20T03:17:15.235Z,11.50
2019-04-20T03:19:37.600Z,11.50
2019-04-20T03:22:18.890Z,11.50
2019-04-20T03:24:59.302Z,11.50
2019-04-20T03:27:11.026Z,11.50
2019-04-20T03:29:56.167Z,11.60
2019-04-20T03:35:14.894Z,11.60
2019-04-20T03:37:36.437Z,11.50
2019-04-20T03:39:56.716Z,11.50
2019-04-20T03:42:14.180Z,11.50
2019-04-20T03:44:52.961Z,11.50
2019-04-20T03:47:26.668Z,11.50
2019-04-20T03:50:10.526Z,11.40
2019-04-20T03:52:37.658Z,11.40
2019-04-20T03:55:16.419Z,11.40
2019-04-20T03:57:51.382Z,11.30
2019-04-20T04:00:22.881Z,11.30
2019-04-20T04:03:12.473Z,11.30
2019-04-20T04:05:48.798Z,11.20
2019-04-20T04:08:16.987Z,11.20
2019-04-20T04:10:54.834Z,11.20
2019-04-20T04:13:14.772Z,11.10
2019-04-20T04:15:52.216Z,11.20
2019-04-20T04:18:26.049Z,11.20
2019-04-20T04:20:59.037Z,11.10
2019-04-20T04:23:36.619Z,11.10
2019-04-20T04:26:10.405Z,11.00
2019-04-20T04:28:42.124Z,10.90
2019-04-20T04:31:11.940Z,10.80
2019-04-20T04:33:58.173Z,10.80
2019-04-20T04:36:10.101Z,10.90
2019-04-20T04:38:47.528Z,11.00
2019-04-20T04:43:48.330Z,11.00
2019-04-20T04:46:00.013Z,11.10
2019-04-20T04:48:35.001Z,11.00
2019-04-20T04:51:08.432Z,11.00
2019-04-20T04:53:44.192Z,11.10
2019-04-20T04:56:07.189Z,11.10
2019-04-20T04:58:34.001Z,11.00
2019-04-20T05:01:10.892Z,11.00
2019-04-20T05:03:58.279Z,11.00
2019-04-20T05:06:24.459Z,11.10
2019-04-20T05:08:45.310Z,11.00
2019-04-20T05:11:09.049Z,11.10
2019-04-20T05:13:47.843Z,11.20
2019-04-20T05:16:27.965Z,11.30
2019-04-20T05:19:02.153Z,11.30
2019-04-20T05:21:30.271Z,11.40
2019-04-20T05:24:10.068Z,11.40
2019-04-20T05:26:42.669Z,11.40
2019-04-20T05:29:02.570Z,11.40
2019-04-20T05:31:30.928Z,11.40
2019-04-20T05:34:20.365Z,11.50
2019-04-20T05:36:45.204Z,11.60
2019-04-20T05:39:25.160Z,11.60
2019-04-20T05:41:48.591Z,11.70
2019-04-20T05:44:16.512Z,11.80
2019-04-20T05:46:59.975Z,11.80
2019-04-20T05:49:28.462Z,11.90
2019-04-20T05:51:54.665Z,11.90
2019-04-20T05:54:30.884Z,12.00
2019-04-20T05:57:00.904Z,12.20
2019-04-20T05:59:27.005Z,12.20
2019-04-20T06:02:07.567Z,12.30
2019-04-20T06:04:46.276Z,12.40
2019-04-20T06:07:02.425Z,12.50
2019-04-20T06:09:34.187Z,12.60
2019-04-20T06:12:17.945Z,12.70
2019-04-20T06:14:48.265Z,12.90
2019-04-20T06:17:26.634Z,13.00
2019-04-20T06:20:00.690Z,13.20
2019-04-20T06:25:19.642Z,13.40
2019-04-20T06:27:38.108Z,13.50
2019-04-20T06:30:00.893Z,13.60
2019-04-20T06:33:16.100Z,13.90
2019-04-20T06:36:01.205Z,14.10
2019-04-20T06:38:27.894Z,14.30
2019-04-20T06:40:57.895Z,14.40
2019-04-20T06:43:18.048Z,14.60
2019-04-20T06:45:52.855Z,14.80
2019-04-20T06:48:21.743Z,14.90
2019-04-20T06:50:49.527Z,15.10
2019-04-20T06:53:39.074Z,15.20
2019-04-20T06:56:09.913Z,15.30
2019-04-20T06:58:43.892Z,15.40
2019-04-20T07:01:11.378Z,15.40
2019-04-20T07:03:51.345Z,15.50
2019-04-20T07:06:31.057Z,15.60
2019-04-20T07:08:58.677Z,15.60
2019-04-20T07:11:19.860Z,15.80
2019-04-20T07:13:36.046Z,15.70
2019-04-20T07:16:21.325Z,15.90
2019-04-20T07:19:17.213Z,15.90
2019-04-20T07:22:23.348Z,15.70
2019-04-20T07:24:42.902Z,15.70
2019-04-20T07:27:06.445Z,15.80
2019-04-20T07:29:41.108Z,15.80
2019-04-20T07:32:01.754Z,15.90
2019-04-20T07:34:44.800Z,16.00
2019-04-20T07:37:41.936Z,16.10
2019-04-20T07:39:40.312Z,16.30
2019-04-20T07:42:16.813Z,16.30
2019-04-20T07:44:48.613Z,16.40
2019-04-20T07:47:24.375Z,16.40
2019-04-20T07:49:45.857Z,16.50
2019-04-20T07:51:57.598Z,16.70
2019-04-20T07:55:03.475Z,16.90
2019-04-20T07:57:14.575Z,16.90
2019-04-20T07:59:46.968Z,16.90
2019-04-20T08:02:35.094Z,16.90
2019-04-20T08:04:56.251Z,16.90
2019-04-20T08:07:12.007Z,17.00
2019-04-20T08:09:49.015Z,16.90
2019-04-20T08:12:42.026Z,17.10
2019-04-20T08:15:32.747Z,17.10
2019-04-20T08:20:19.108Z,17.50
2019-04-20T08:22:47.746Z,17.60
2019-04-20T08:25:08.240Z,17.70
2019-04-20T08:27:29.669Z,17.70
2019-04-20T08:30:46.474Z,17.90
2019-04-20T08:33:27.975Z,18.20
2019-04-20T08:36:01.203Z,18.30
2019-04-20T08:41:00.491Z,18.40
2019-04-20T08:43:42.277Z,18.40
2019-04-20T08:46:03.495Z,18.40
2019-04-20T08:48:34.867Z,18.60
2019-04-20T08:51:03.469Z,18.80
2019-04-20T08:53:36.894Z,19.00
2019-04-20T08:55:57.791Z,19.10
2019-04-20T08:58:15.991Z,19.20
2019-04-20T09:00:49.976Z,19.20
2019-04-20T09:03:21.931Z,19.40
2019-04-20T09:05:59.499Z,19.60
2019-04-20T09:08:24.890Z,19.80
2019-04-20T09:11:10.184Z,20.00
2019-04-20T09:13:29.961Z,20.20
2019-04-20T09:15:51.929Z,20.40
2019-04-20T09:18:36.430Z,20.50
2019-04-20T09:21:07.718Z,20.70
2019-04-20T09:23:49.638Z,20.70
2019-04-20T09:26:21.365Z,20.80
2019-04-20T09:28:56.048Z,20.90
2019-04-20T09:31:43.311Z,21.10
2019-04-20T09:34:20.381Z,20.90
2019-04-20T09:36:46.158Z,21.00
2019-04-20T09:39:32.623Z,21.20
2019-04-20T09:42:01.781Z,21.20
2019-04-20T09:44:37.534Z,21.20
2019-04-20T09:47:04.659Z,21.40
2019-04-20T09:49:46.022Z,21.50
2019-04-20T09:52:16.884Z,21.50
2019-04-20T09:54:52.634Z,21.60
2019-04-20T09:57:25.325Z,21.80
2019-04-20T09:59:57.736Z,21.80
2019-04-20T10:02:16.757Z,22.00
2019-04-20T10:04:40.183Z,22.10
2019-04-20T10:07:14.263Z,22.30
2019-04-20T10:09:44.857Z,22.50
2019-04-20T10:12:11.442Z,22.60
2019-04-20T10:14:40.792Z,22.80
2019-04-20T10:17:11.884Z,23.10
2019-04-20T10:19:42.770Z,23.20
2019-04-20T10:22:13.072Z,23.20
2019-04-20T10:24:43.289Z,23.50
2019-04-20T10:27:14.591Z,23.50
2019-04-20T10:29:44.013Z,23.60
2019-04-20T10:32:15.620Z,23.70
2019-04-20T10:34:44.372Z,24.00
2019-04-20T10:37:15.658Z,24.10
2019-04-20T10:39:44.968Z,24.40
2019-04-20T10:42:14.368Z,24.40
2019-04-20T10:44:45.082Z,24.60
2019-04-20T10:47:14.797Z,24.80
2019-04-20T10:49:45.027Z,25.00
2019-04-20T10:52:15.786Z,25.30
2019-04-20T10:54:45.161Z,25.40
2019-04-20T10:57:15.557Z,25.50
2019-04-20T10:59:45.699Z,25.60
2019-04-20T11:02:16.019Z,25.80
2019-04-20T11:04:46.456Z,25.90
2019-04-20T11:07:16.662Z,26.10
2019-04-20T11:09:47.129Z,26.20
2019-04-20T11:12:16.687Z,25.80
2019-04-20T11:14:46.018Z,26.10
2019-04-20T11:17:16.361Z,26.30
2019-04-20T11:19:45.744Z,26.00
2019-04-20T11:22:15.072Z,25.80
2019-04-20T11:24:44.365Z,25.80
2019-04-20T11:27:14.261Z,25.70
2019-04-20T11:29:44.402Z,25.60
2019-04-20T11:32:14.235Z,25.60
2019-04-20T11:34:44.218Z,25.70
2019-04-20T11:37:15.267Z,25.70
2019-04-20T11:39:45.325Z,25.70
2019-04-20T11:42:14.661Z,25.80
2019-04-20T11:44:44.758Z,25.90
2019-04-20T11:47:14.715Z,25.90
2019-04-20T11:49:44.132Z,25.90
2019-04-20T11:52:16.496Z,26.10
2019-04-20T11:54:44.438Z,26.60
2019-04-20T11:57:15.398Z,26.90
2019-04-20T11:59:45.348Z,27.00
2019-04-20T12:02:39.860Z,27.20
2019-04-20T12:05:21.456Z,27.50
2019-04-20T12:07:53.565Z,27.30
2019-04-20T12:10:25.552Z,27.10
2019-04-20T12:12:55.614Z,26.90
2019-04-20T12:15:24.849Z,27.00
2019-04-20T12:17:55.574Z,27.10
2019-04-20T12:20:25.075Z,27.20
2019-04-20T12:22:54.705Z,27.30
2019-04-20T12:25:24.037Z,27.30
2019-04-20T12:27:57.086Z,27.20
2019-04-20T12:30:25.846Z,27.40
2019-04-20T12:32:59.801Z,27.60
2019-04-20T12:35:26.514Z,27.80
2019-04-20T12:37:56.923Z,28.00
2019-04-20T12:40:28.041Z,27.90
2019-04-20T12:42:57.465Z,28.00
2019-04-20T12:45:27.272Z,28.30
2019-04-20T12:47:57.587Z,28.50
2019-04-20T12:50:27.667Z,28.50
2019-04-20T12:52:56.954Z,28.40
2019-04-20T12:55:26.430Z,28.40
2019-04-20T12:57:56.693Z,28.40
2019-04-20T13:00:29.737Z,28.00
2019-04-20T13:02:59.226Z,27.70
2019-04-20T13:05:29.669Z,27.40
2019-04-20T13:08:01.024Z,27.90
2019-04-20T13:10:30.083Z,27.80
2019-04-20T13:13:04.685Z,28.10
2019-04-20T13:15:44.574Z,28.50
2019-04-20T13:18:15.488Z,28.90
2019-04-20T13:20:45.862Z,28.50
2019-04-20T13:23:15.360Z,28.80
2019-04-20T13:25:44.627Z,29.20
2019-04-20T13:28:14.778Z,29.10
2019-04-20T13:30:44.271Z,28.90
2019-04-20T13:33:14.169Z,28.80
2019-04-20T13:35:43.888Z,28.90
2019-04-20T13:38:14.189Z,29.20
2019-04-20T13:40:43.953Z,29.20
2019-04-20T13:43:13.881Z,29.30
2019-04-20T13:45:44.725Z,29.50
2019-04-20T13:48:15.202Z,29.60
2019-04-20T13:50:44.502Z,29.50
2019-04-20T13:53:13.785Z,29.80
2019-04-20T13:55:45.469Z,30.00
2019-04-20T13:58:33.857Z,30.00
2019-04-20T14:01:08.480Z,30.00
2019-04-20T14:03:38.823Z,29.40
2019-04-20T14:06:08.991Z,29.70
2019-04-20T14:08:39.177Z,29.80
2019-04-20T14:11:09.471Z,30.10
2019-04-20T14:13:45.104Z,29.90
2019-04-20T14:16:11.230Z,30.00
2019-04-20T14:18:40.968Z,29.80
2019-04-20T14:21:10.322Z,29.30
2019-04-20T14:23:39.592Z,29.20
2019-04-20T14:26:09.220Z,29.00
2019-04-20T14:28:38.831Z,28.30
2019-04-20T14:31:09.804Z,28.10
2019-04-20T14:33:39.195Z,28.10
2019-04-20T14:36:08.782Z,28.20
2019-04-20T14:38:38.388Z,28.20
2019-04-20T14:41:08.484Z,28.60
2019-04-20T14:43:38.702Z,28.70
2019-04-20T14:46:10.613Z,28.90
2019-04-20T14:48:40.659Z,28.70
2019-04-20T14:51:10.073Z,28.50
2019-04-20T14:53:39.340Z,28.40
2019-04-20T14:56:09.571Z,28.30
2019-04-20T14:58:42.179Z,28.10
2019-04-20T15:01:28.465Z,27.90
2019-04-20T15:04:04.923Z,28.30
2019-04-20T15:06:32.433Z,28.70
2019-04-20T15:09:02.970Z,28.80
2019-04-20T15:11:34.709Z,28.70
2019-04-20T15:14:04.755Z,28.50
2019-04-20T15:16:34.839Z,28.70
2019-04-20T15:19:07.525Z,28.60
2019-04-20T15:21:39.652Z,28.30
2019-04-20T15:24:09.349Z,28.00
2019-04-20T15:26:38.700Z,28.30
2019-04-20T15:29:08.391Z,28.30
2019-04-20T15:31:38.428Z,28.50
2019-04-20T15:34:08.811Z,28.60
2019-04-20T15:36:38.236Z,28.70
2019-04-20T15:39:07.741Z,28.70
2019-04-20T15:41:39.140Z,28.10
2019-04-20T15:44:11.209Z,27.90
2019-04-20T15:46:41.656Z,27.70
2019-04-20T15:49:11.063Z,27.90
2019-04-20T15:51:41.741Z,28.10
2019-04-20T15:54:11.492Z,28.00
2019-04-20T15:56:43.463Z,27.90
2019-04-20T15:59:12.664Z,27.70
2019-04-20T16:01:45.124Z,27.80
2019-04-20T16:04:30.627Z,27.60
2019-04-20T16:06:56.949Z,27.80
2019-04-20T16:09:29.889Z,27.70
2019-04-20T16:11:59.145Z,27.50
2019-04-20T16:14:28.473Z,27.20
2019-04-20T16:16:58.259Z,27.10
2019-04-20T16:19:38.080Z,27.00
2019-04-20T16:21:59.536Z,26.80
2019-04-20T16:24:32.860Z,27.00
2019-04-20T16:27:11.775Z,27.00
2019-04-20T16:29:41.846Z,26.80
2019-04-20T16:32:12.280Z,26.80
2019-04-20T16:34:42.554Z,26.80
2019-04-20T16:37:12.613Z,26.80
2019-04-20T16:39:42.867Z,26.40
2019-04-20T16:42:13.833Z,26.50
2019-04-20T16:44:43.523Z,26.30
2019-04-20T16:47:14.222Z,26.10
2019-04-20T16:49:43.616Z,26.30
2019-04-20T16:52:12.914Z,26.50
2019-04-20T16:54:43.767Z,26.70
2019-04-20T16:57:15.586Z,26.40
2019-04-20T16:59:48.477Z,26.40
2019-04-20T17:02:17.458Z,26.30
2019-04-20T17:04:47.226Z,25.90
2019-04-20T17:07:18.837Z,25.80
2019-04-20T17:09:52.341Z,25.80
2019-04-20T17:12:21.927Z,25.80
2019-04-20T17:14:51.636Z,25.50
2019-04-20T17:17:21.966Z,25.20
2019-04-20T17:19:51.516Z,25.30
2019-04-20T17:22:21.498Z,25.30
2019-04-20T17:24:51.511Z,25.50
2019-04-20T17:27:39.181Z,25.30
2019-04-20T17:30:25.647Z,25.30
2019-04-20T17:33:06.157Z,25.20
2019-04-20T17:35:50.660Z,24.80
2019-04-20T17:38:08.980Z,24.70
2019-04-20T17:40:56.346Z,24.60
2019-04-20T17:43:20.101Z,24.70
2019-04-20T17:45:50.464Z,24.50
2019-04-20T17:48:23.248Z,24.40
2019-04-20T17:51:08.845Z,24.50
2019-04-20T17:53:29.442Z,24.50
2019-04-20T17:55:54.461Z,24.50
2019-04-20T17:58:29.157Z,24.40
2019-04-20T18:01:03.642Z,24.20
2019-04-20T18:06:25.402Z,23.80
2019-04-20T18:08:53.769Z,23.60
2019-04-20T18:11:15.218Z,23.30
2019-04-20T18:13:40.633Z,23.20
2019-04-20T18:16:36.547Z,23.00
2019-04-20T18:19:00.336Z,22.90
2019-04-20T18:21:24.463Z,22.60
2019-04-20T18:23:54.135Z,22.50
2019-04-20T18:26:45.576Z,22.30
2019-04-20T18:29:14.937Z,22.10
2019-04-20T18:31:33.493Z,22.00
2019-04-20T18:34:08.983Z,21.70
2019-04-20T18:36:39.732Z,21.50
2019-04-20T18:39:10.478Z,21.40
2019-04-20T18:41:45.541Z,21.30
2019-04-20T18:44:10.802Z,21.30
2019-04-20T18:47:06.451Z,21.30
2019-04-20T18:49:26.968Z,21.30
2019-04-20T18:51:42.201Z,21.30
2019-04-20T18:54:19.340Z,21.20
2019-04-20T18:56:47.341Z,21.00
2019-04-20T18:59:14.452Z,20.70
2019-04-20T19:01:45.469Z,20.60
2019-04-20T19:04:14.736Z,20.70
2019-04-20T19:06:44.010Z,20.70
2019-04-20T19:09:16.727Z,20.60
2019-04-20T19:11:52.138Z,20.40
2019-04-20T19:14:38.661Z,20.40
2019-04-20T19:17:18.857Z,20.30
2019-04-20T19:19:48.310Z,20.10
2019-04-20T19:22:17.335Z,20.00
2019-04-20T19:24:47.676Z,20.00
2019-04-20T19:27:17.807Z,19.90
2019-04-20T19:29:59.202Z,19.70
2019-04-20T19:32:34.842Z,19.60
2019-04-20T19:34:59.325Z,19.60
2019-04-20T19:37:28.673Z,19.50
2019-04-20T19:40:04.561Z,19.40
2019-04-20T19:42:34.692Z,19.20
2019-04-20T19:45:25.109Z,19.00
2019-04-20T19:47:46.811Z,19.00
2019-04-20T19:50:26.808Z,18.90
2019-04-20T19:52:53.090Z,18.90
2019-04-20T19:55:14.411Z,18.90
2019-04-20T19:57:45.240Z,18.80
2019-04-20T20:00:01.787Z,18.60
2019-04-20T20:02:31.858Z,18.50
2019-04-20T20:05:07.166Z,18.50
2019-04-20T20:07:38.876Z,18.50
2019-04-20T20:10:10.586Z,18.40
2019-04-20T20:12:49.411Z,18.20
2019-04-20T20:15:17.008Z,18.00
2019-04-20T20:18:03.650Z,17.90
2019-04-20T20:20:35.968Z,17.90
2019-04-20T20:22:49.655Z,17.90
2019-04-20T20:25:16.801Z,17.60
2019-04-20T20:27:52.435Z,17.60
2019-04-20T20:30:24.465Z,17.50
2019-04-20T20:33:04.863Z,17.40
2019-04-20T20:35:25.037Z,17.40
2019-04-20T20:37:57.385Z,17.30
2019-04-20T20:40:30.247Z,17.20
2019-04-20T20:43:06.191Z,17.10
2019-04-20T20:45:31.402Z,17.10
2019-04-20T20:48:12.099Z,17.10
2019-04-20T20:50:48.777Z,17.10
2019-04-20T20:53:09.016Z,17.10
2019-04-20T20:55:35.540Z,17.00
2019-04-20T20:58:08.505Z,16.90
2019-04-20T21:00:38.851Z,16.70
2019-04-20T21:03:04.619Z,16.70
2019-04-20T21:05:31.873Z,16.80
2019-04-20T21:08:01.651Z,16.70
2019-04-20T21:10:36.661Z,16.60
2019-04-20T21:13:06.530Z,16.60
2019-04-20T21:15:33.351Z,16.60
2019-04-20T21:18:26.302Z,16.70
2019-04-20T21:20:55.241Z,16.70
2019-04-20T21:23:17.479Z,16.60
2019-04-20T21:25:43.236Z,16.60
2019-04-20T21:28:08.931Z,16.50
2019-04-20T21:30:43.217Z,16.50
2019-04-20T21:33:09.757Z,16.50
2019-04-20T21:35:44.606Z,16.50
2019-04-20T21:38:14.668Z,16.40
2019-04-20T21:40:44.982Z,16.40
2019-04-20T21:43:14.529Z,16.40
2019-04-20T21:45:54.691Z,16.40
2019-04-20T21:48:34.045Z,16.30
2019-04-20T21:51:01.542Z,16.30
2019-04-20T21:53:24.410Z,16.20
2019-04-20T21:55:50.146Z,16.10
2019-04-20T21:58:28.067Z,16.00
2019-04-20T22:01:07.139Z,15.90
2019-04-20T22:03:24.678Z,16.00
2019-04-20T22:06:04.505Z,15.90
2019-04-20T22:08:34.628Z,15.80
2019-04-20T22:11:05.802Z,15.70
2019-04-20T22:13:38.885Z,15.80
2019-04-20T22:16:10.303Z,15.70
2019-04-20T22:18:49.524Z,15.60
2019-04-20T22:21:18.769Z,15.50
2019-04-20T22:23:54.785Z,15.50
2019-04-20T22:26:24.640Z,15.50
2019-04-20T22:28:42.430Z,15.40
2019-04-20T22:31:11.988Z,15.40
2019-04-20T22:33:44.904Z,15.40
2019-04-20T22:36:14.534Z,15.40
2019-04-20T22:39:03.448Z,15.30
2019-04-20T22:41:38.670Z,15.20
2019-04-20T22:44:14.578Z,15.10
2019-04-20T22:46:42.195Z,15.10
2019-04-20T22:49:26.622Z,15.10
2019-04-20T22:51:51.971Z,15.00
2019-04-20T22:54:27.908Z,15.00
2019-04-20T22:56:54.909Z,15.00
2019-04-20T22:59:20.312Z,14.90
2019-04-20T23:01:51.493Z,14.90
2019-04-20T23:04:17.019Z,14.90
2019-04-20T23:06:50.142Z,14.90
2019-04-20T23:09:18.618Z,14.90
2019-04-20T23:11:49.377Z,14.90
2019-04-20T23:14:18.761Z,14.90
2019-04-20T23:16:51.823Z,14.90
2019-04-20T23:19:31.066Z,14.90
2019-04-20T23:21:57.247Z,14.90
2019-04-20T23:24:21.957Z,14.80
2019-04-20T23:26:51.390Z,14.90
2019-04-20T23:29:28.291Z,15.00
2019-04-20T23:31:59.646Z,15.00
2019-04-20T23:34:27.306Z,15.10
2019-04-20T23:36:54.874Z,15.10
2019-04-20T23:39:30.142Z,15.10
2019-04-20T23:42:01.481Z,15.10
2019-04-20T23:44:40.024Z,15.10
2019-04-20T23:47:15.161Z,15.10
2019-04-20T23:50:05.985Z,15.00
2019-04-20T23:52:39.181Z,14.90
2019-04-20T23:54:51.167Z,14.90
2019-04-20T23:57:17.743Z,14.80
2019-04-20T23:59:48.680Z,14.90
